This is the latest recevied weather packets stored in our database for station/object EB1TR-13. If no packets are shown the sender has not sent any weather packets the latest 10 day(s).
| Time | Temp. | Humidity | Pressure | Rain* | Wind** | Luminosity | Snow |
|---|---|---|---|---|---|---|---|
| 1777924786 | 11.67° C | 91% | 1015 hPa | 0 mm | - | 0 W/m² | - |
| 1777923886 | 11.67° C | 90% | 1015 hPa | 0 mm | - | 0 W/m² | - |
| 1777922986 | 12.22° C | 90% | 1015 hPa | 0 mm | - | 0 W/m² | - |
| 1777922085 | 12.22° C | 89% | 1015 hPa | 0 mm | - | 0 W/m² | - |
| 1777921185 | 12.22° C | 89% | 1015 hPa | 0 mm | - | 0 W/m² | - |
| 1777920289 | 12.78° C | 88% | 1015 hPa | 0 mm | - | 0 W/m² | - |
| 1777919386 | 13.33° C | 88% | 1015 hPa | 0 mm | - | 0 W/m² | - |
| 1777918485 | 13.89° C | 86% | 1015 hPa | 0 mm | - | 0 W/m² | - |
| 1777917585 | 14.44° C | 82% | 1015 hPa | 0 mm | - | 0 W/m² | - |
| 1777916686 | 14.44° C | 79% | 1015 hPa | 0 mm | - | 0 W/m² | - |
| 1777915786 | 15° C | 76% | 1015 hPa | 0 mm | - | 0 W/m² | - |
| 1777914886 | 15.56° C | 73% | 1014 hPa | 0 mm | - | 0 W/m² | - |
| 1777913985 | 15.56° C | 72% | 1014 hPa | 0 mm | - | 0 W/m² | - |
| 1777913086 | 15.56° C | 71% | 1014 hPa | 0 mm | - | 0 W/m² | - |
| 1777912186 | 15.56° C | 70% | 1014 hPa | 0 mm | - | 0 W/m² | - |
| 1777911286 | 16.11° C | 69% | 1014 hPa | 0 mm | - | 0 W/m² | - |
| 1777910386 | 16.11° C | 68% | 1014 hPa | 0 mm | - | 0 W/m² | - |
| 1777909486 | 16.11° C | 67% | 1014 hPa | 0 mm | - | 0 W/m² | - |
| 1777908586 | 16.11° C | 68% | 1014 hPa | 0 mm | - | 0 W/m² | - |
| 1777907686 | 16.67° C | 66% | 1014 hPa | 0 mm | - | 0 W/m² | - |
| 1777906785 | 17.22° C | 67% | 1014 hPa | 0 mm | - | 0 W/m² | - |
| 1777905885 | 16.67° C | 71% | 1014 hPa | 0 mm | - | 0 W/m² | - |
| 1777904986 | 16.67° C | 72% | 1014 hPa | 0 mm | - | 0 W/m² | - |
| 1777904086 | 16.67° C | 73% | 1014 hPa | 0 mm | - | 0 W/m² | - |
| 1777903186 | 16.11° C | 73% | 1014 hPa | 0 mm | - | 0 W/m² | - |
* Rain latest hour (hover to see other rain measurements)
** Current wind speed in m/s (hover to see current wind gust speed)